Time;durP1;ratioP1;P1;durP2;ratioP2;P2;SDS_P1;SDS_P2;PMS_P1;PMS_P2;Temp;Humidity;BMP_temperature;BMP_pressure;BME280_temperature;BME280_humidity;BME280_pressure;Samples;Min_cycle;Max_cycle;Signal;HPM_P1;HPM_P2
2022/08/16 00:02:57;;;;;;;14.00;12.80;;;;;;;25.79;45.88;94639.84;6176777;28;102706;-56
2022/08/16 00:06:00;;;;;;;14.30;13.30;;;;;;;25.69;45.90;94638.41;6179963;28;104147;-55
2022/08/16 00:09:04;;;;;;;13.93;13.03;;;;;;;25.60;46.03;94640.47;6185164;28;103199;-55
2022/08/16 00:12:09;;;;;;;14.10;13.10;;;;;;;25.54;46.09;94647.19;6183643;28;103474;-55
2022/08/16 00:15:16;;;;;;;14.40;13.30;;;;;;;25.45;46.43;94646.50;6172224;28;103259;-54
2022/08/16 00:18:19;;;;;;;13.50;12.50;;;;;;;25.44;46.52;94647.63;6182713;28;104009;-54
2022/08/16 00:21:31;;;;;;;13.70;12.67;;;;;;;25.43;46.32;94635.34;6179294;28;104305;-54
2022/08/16 00:24:34;;;;;;;14.10;13.00;;;;;;;25.54;46.28;94649.84;6184700;28;103584;-54
2022/08/16 00:27:39;;;;;;;14.37;13.27;;;;;;;25.74;45.63;94647.38;6173323;28;104503;-54
2022/08/16 00:30:42;;;;;;;14.97;13.80;;;;;;;25.90;45.65;94653.56;6183009;28;102892;-55
2022/08/16 00:33:46;;;;;;;14.03;12.93;;;;;;;25.99;45.15;94655.00;6182162;28;103768;-54
2022/08/16 00:36:52;;;;;;;15.67;14.27;;;;;;;26.06;45.43;94651.78;6177691;28;104075;-55
2022/08/16 00:39:57;;;;;;;14.67;13.53;;;;;;;26.13;44.80;94646.59;6180406;28;104379;-55
2022/08/16 00:43:04;;;;;;;14.70;13.60;;;;;;;26.10;44.94;94639.22;6181526;28;103226;-54
2022/08/16 00:46:21;;;;;;;12.73;11.70;;;;;;;25.93;45.37;94642.94;6180521;28;103872;-55
2022/08/16 00:49:37;;;;;;;13.17;12.17;;;;;;;25.80;45.68;94646.00;6168349;28;102720;-54
2022/08/16 00:52:46;;;;;;;13.17;12.07;;;;;;;25.64;46.13;94653.97;6182934;28;104094;-55
2022/08/16 00:55:56;;;;;;;14.23;13.03;;;;;;;25.56;46.31;94661.03;6183857;28;104037;-55
2022/08/16 00:59:01;;;;;;;14.10;12.90;;;;;;;25.48;46.57;94653.88;6182208;28;103012;-56
2022/08/16 01:02:08;;;;;;;13.87;12.70;;;;;;;25.41;46.36;94659.03;6173277;28;103084;-55
2022/08/16 01:05:31;;;;;;;14.60;13.50;;;;;;;25.39;46.83;94663.94;6183295;28;105325;-56
2022/08/16 01:08:36;;;;;;;14.87;13.70;;;;;;;25.33;47.03;94662.56;6184102;28;103970;-55
2022/08/16 01:11:42;;;;;;;13.50;12.50;;;;;;;25.37;46.83;94664.28;6170925;28;104537;-55
2022/08/16 01:15:00;;;;;;;13.33;12.30;;;;;;;25.55;46.08;94667.50;6183967;28;104224;-55
2022/08/16 01:18:07;;;;;;;14.40;13.40;;;;;;;25.73;45.80;94664.56;6181389;28;103387;-55
2022/08/16 01:21:44;;;;;;;15.53;14.33;;;;;;;25.87;45.72;94670.31;6183336;28;102994;-55
2022/08/16 01:24:54;;;;;;;13.43;12.43;;;;;;;26.00;44.90;94682.63;6176166;28;104129;-55
2022/08/16 01:28:00;;;;;;;13.03;12.10;;;;;;;26.04;44.98;94675.44;6182630;28;103611;-55
2022/08/16 01:31:07;;;;;;;13.77;12.80;;;;;;;26.07;45.22;94682.84;6183006;28;104026;-55
2022/08/16 01:34:13;;;;;;;15.50;14.13;;;;;;;25.96;45.03;94677.13;6171006;28;103442;-55
2022/08/16 01:37:29;;;;;;;13.87;12.73;;;;;;;25.75;45.58;94673.03;6183304;28;102991;-55
2022/08/16 01:40:39;;;;;;;13.20;12.20;;;;;;;25.63;45.60;94676.50;6181690;28;103758;-56
2022/08/16 01:43:45;;;;;;;15.00;13.83;;;;;;;25.53;45.92;94682.31;6179275;28;102852;-55
2022/08/16 01:46:56;;;;;;;14.07;13.00;;;;;;;25.44;46.27;94682.44;6170604;28;104450;-55
2022/08/16 01:50:00;;;;;;;13.40;12.40;;;;;;;25.37;46.27;94679.53;6181839;28;103057;-55
2022/08/16 01:53:23;;;;;;;13.33;12.43;;;;;;;25.30;46.36;94680.06;6183027;28;102960;-54
2022/08/16 01:56:29;;;;;;;13.93;12.90;;;;;;;25.26;46.50;94683.78;6175852;28;103091;-56
2022/08/16 01:59:37;;;;;;;14.60;13.50;;;;;;;25.26;46.39;94683.78;6183267;28;103193;-57
2022/08/16 02:02:42;;;;;;;16.03;14.83;;;;;;;25.38;46.08;94686.47;6180767;28;103289;-56
2022/08/16 02:05:54;;;;;;;14.73;13.63;;;;;;;25.54;45.78;94684.69;6182440;28;103035;-56
2022/08/16 02:08:59;;;;;;;14.40;13.30;;;;;;;25.68;45.49;94682.41;6174133;28;104174;-56
2022/08/16 02:12:05;;;;;;;13.00;12.10;;;;;;;25.82;44.96;94686.66;6183006;28;103140;-56
2022/08/16 02:15:30;;;;;;;14.60;13.30;;;;;;;25.95;44.89;94699.69;6175406;28;104888;-56
2022/08/16 02:18:44;;;;;;;14.40;13.30;;;;;;;26.04;44.42;94704.94;6169385;28;103384;-57
2022/08/16 02:21:52;;;;;;;14.20;13.20;;;;;;;25.93;44.94;94709.19;6177448;28;103950;-57
2022/08/16 02:25:16;;;;;;;14.73;13.63;;;;;;;25.75;45.01;94715.94;6180087;28;104662;-56
2022/08/16 02:28:21;;;;;;;14.17;13.07;;;;;;;25.65;45.29;94739.38;6181531;28;104492;-56
2022/08/16 02:31:25;;;;;;;14.73;13.63;;;;;;;25.53;45.64;94747.41;6165784;28;103619;-56
2022/08/16 02:34:48;;;;;;;14.50;13.10;;;;;;;25.47;45.58;94761.38;6180844;28;105288;-56
2022/08/16 02:37:52;;;;;;;13.23;12.20;;;;;;;25.40;45.89;94759.25;6183181;28;104173;-56
2022/08/16 02:40:58;;;;;;;14.00;12.80;;;;;;;25.31;45.86;94761.22;6182504;28;102906;-56
2022/08/16 02:44:02;;;;;;;14.20;13.17;;;;;;;25.27;46.20;94757.66;6172733;28;103482;-56
2022/08/16 02:47:06;;;;;;;13.43;12.33;;;;;;;25.21;46.32;94753.63;6182507;28;103307;-56
2022/08/16 02:50:09;;;;;;;13.30;12.20;;;;;;;25.31;46.27;94761.22;6182036;28;103211;-56
2022/08/16 02:53:33;;;;;;;13.60;12.40;;;;;;;25.50;46.49;94748.09;6176628;28;104023;-56
2022/08/16 02:56:37;;;;;;;14.00;12.90;;;;;;;25.71;45.79;94760.59;6187870;28;104208;-57
2022/08/16 02:59:43;;;;;;;14.17;13.17;;;;;;;25.81;45.59;94750.19;6186192;28;103016;-56
2022/08/16 03:02:46;;;;;;;14.73;13.53;;;;;;;25.91;45.59;94746.28;6186438;28;103391;-56
2022/08/16 03:05:58;;;;;;;17.43;13.80;;;;;;;25.96;45.37;94746.84;6176918;28;103899;-56
2022/08/16 03:09:01;;;;;;;13.87;12.70;;;;;;;25.98;45.61;94741.13;6186781;28;103319;-56
2022/08/16 03:12:05;;;;;;;13.50;12.33;;;;;;;25.81;45.98;94741.38;6187214;28;104251;-57
2022/08/16 03:15:14;;;;;;;13.10;12.00;;;;;;;25.54;46.84;94738.28;6172403;28;105350;-58
2022/08/16 03:18:19;;;;;;;12.50;11.50;;;;;;;24.96;47.13;94723.34;6176478;28;104972;-52
2022/08/16 03:21:42;;;;;;;13.53;12.33;;;;;;;25.00;48.57;94718.88;6173948;28;103058;-56
2022/08/16 03:24:45;;;;;;;13.40;12.10;;;;;;;25.29;48.15;94717.91;6167909;28;103239;-56
2022/08/16 03:27:48;;;;;;;12.77;11.77;;;;;;;25.48;47.47;94723.53;6174615;28;103217;-56
2022/08/16 03:30:53;;;;;;;12.50;11.60;;;;;;;25.45;48.04;94724.19;6177722;28;104329;-57
2022/08/16 03:33:57;;;;;;;13.97;12.80;;;;;;;25.47;47.63;94721.97;6183642;28;104248;-57
2022/08/16 03:37:01;;;;;;;12.87;11.87;;;;;;;25.67;47.37;94715.69;6185379;28;103979;-59
2022/08/16 03:40:06;;;;;;;12.33;11.43;;;;;;;25.59;47.49;94711.25;6159288;28;103228;-59
2022/08/16 03:43:12;;;;;;;12.37;11.33;;;;;;;25.53;46.93;94720.63;6174618;28;104217;-59
2022/08/16 03:46:24;;;;;;;13.40;12.20;;;;;;;25.76;46.54;94726.31;6175974;28;104305;-58
2022/08/16 03:49:48;;;;;;;11.83;10.93;;;;;;;25.78;46.73;94721.41;6177339;28;103742;-59
2022/08/16 03:52:54;;;;;;;12.27;11.27;;;;;;;25.82;46.13;94730.31;6171311;28;105458;-59
2022/08/16 03:56:07;;;;;;;13.67;12.53;;;;;;;25.62;46.25;94726.66;6183683;28;103039;-59
2022/08/16 03:59:22;;;;;;;13.37;12.03;;;;;;;25.24;47.39;94718.16;6183551;28;103071;-61
2022/08/16 04:02:27;;;;;;;12.97;11.60;;;;;;;25.35;47.13;94711.25;6175038;28;104247;-60
2022/08/16 04:05:35;;;;;;;13.33;12.03;;;;;;;25.34;46.90;94712.31;6184641;28;104028;-57
2022/08/16 04:08:39;;;;;;;13.70;11.40;;;;;;;25.05;47.68;94721.34;6184608;28;103034;-57
2022/08/16 04:11:42;;;;;;;12.87;11.87;;;;;;;24.82;48.28;94720.94;6185743;28;103287;-57
2022/08/16 04:14:46;;;;;;;16.73;11.20;;;;;;;24.93;47.69;94716.75;6175765;28;103528;-57
2022/08/16 04:17:53;;;;;;;13.83;12.73;;;;;;;25.00;48.22;94713.53;6182828;28;103164;-57
2022/08/16 04:20:57;;;;;;;13.70;12.50;;;;;;;25.14;48.14;94715.88;6178372;28;103947;-58
2022/08/16 04:24:02;;;;;;;14.83;13.43;;;;;;;25.38;47.75;94716.72;6181915;28;104365;-57
2022/08/16 04:27:09;;;;;;;16.30;14.97;;;;;;;25.30;47.73;94722.16;6183860;28;103093;-57
2022/08/16 04:30:16;;;;;;;12.53;11.50;;;;;;;25.24;47.28;94723.50;6175183;28;104209;-58
2022/08/16 04:33:38;;;;;;;12.00;10.90;;;;;;;25.27;47.33;94722.81;6164191;28;103250;-57
2022/08/16 04:36:53;;;;;;;12.00;11.00;;;;;;;25.47;46.86;94730.00;6175367;28;104405;-58
2022/08/16 04:39:56;;;;;;;12.97;11.97;;;;;;;25.45;47.03;94726.09;6183125;28;104251;-57
2022/08/16 04:43:00;;;;;;;12.43;11.30;;;;;;;25.74;46.40;94730.47;6184617;28;104271;-57
2022/08/16 04:46:03;;;;;;;12.37;11.50;;;;;;;25.85;46.62;94729.63;6183206;28;103353;-58
2022/08/16 04:49:27;;;;;;;13.73;12.30;;;;;;;25.80;47.10;94721.06;6180703;28;102788;-57
2022/08/16 04:52:49;;;;;;;15.67;12.50;;;;;;;25.73;47.32;94718.16;6185666;28;104195;-57
2022/08/16 04:55:52;;;;;;;14.60;13.30;;;;;;;25.31;48.63;94713.00;6185122;28;103212;-56
2022/08/16 04:58:55;;;;;;;15.20;14.00;;;;;;;24.99;48.84;94717.31;6175116;28;102941;-56
2022/08/16 05:01:59;;;;;;;13.73;12.73;;;;;;;25.06;48.97;94721.03;6185099;28;103169;-57
2022/08/16 05:05:05;;;;;;;14.73;13.50;;;;;;;25.12;48.63;94729.59;6185107;28;103231;-57
2022/08/16 05:08:18;;;;;;;14.37;13.23;;;;;;;25.18;48.52;94740.88;6183890;28;103066;-57
2022/08/16 05:11:32;;;;;;;13.40;12.40;;;;;;;24.92;49.13;94736.59;6174273;28;104262;-58
2022/08/16 05:14:35;;;;;;;14.37;12.97;;;;;;;24.87;49.61;94741.41;6184726;28;103603;-57
2022/08/16 05:17:48;;;;;;;14.70;12.60;;;;;;;24.31;49.47;94739.03;6185654;28;104167;-55
2022/08/16 05:21:03;;;;;;;14.57;13.17;;;;;;;24.53;50.18;94734.41;6178296;28;104067;-57
2022/08/16 05:24:14;;;;;;;14.23;12.97;;;;;;;24.75;49.69;94739.47;6171863;28;103773;-57
2022/08/16 05:27:26;;;;;;;14.33;12.80;;;;;;;24.88;48.06;94749.09;6159386;28;103276;-56
2022/08/16 05:30:29;;;;;;;14.70;13.40;;;;;;;24.89;49.49;94753.34;6159743;28;103287;-58
2022/08/16 05:33:38;;;;;;;15.00;13.90;;;;;;;24.92;49.08;94755.34;6151066;28;102870;-59
2022/08/16 05:36:45;;;;;;;15.50;14.10;;;;;;;24.77;49.41;94748.72;6160086;28;103048;-58
2022/08/16 05:39:52;;;;;;;17.13;15.83;;;;;;;25.01;50.00;94745.31;6160941;28;103163;-58
2022/08/16 05:42:57;;;;;;;16.97;15.57;;;;;;;25.14;49.21;94734.63;6158409;28;103010;-58
2022/08/16 05:46:00;;;;;;;15.10;13.53;;;;;;;25.32;49.43;94741.34;6152027;28;104362;-59
2022/08/16 05:49:03;;;;;;;15.50;14.07;;;;;;;25.60;48.57;94746.88;6160696;28;103826;-60
2022/08/16 05:52:12;;;;;;;16.00;14.50;;;;;;;25.80;48.07;94751.31;6159710;28;103061;-58
2022/08/16 05:55:22;;;;;;;15.87;14.07;;;;;;;25.77;48.98;94751.22;6150955;28;104194;-57
2022/08/16 05:58:25;;;;;;;16.50;14.70;;;;;;;25.67;49.01;94745.19;6160006;28;103818;-58
2022/08/16 06:01:35;;;;;;;16.40;14.90;;;;;;;25.65;49.13;94744.75;6160631;28;104355;-59
2022/08/16 06:04:40;;;;;;;18.33;16.60;;;;;;;25.50;50.96;94736.59;6160572;28;103201;-59
2022/08/16 06:07:48;;;;;;;18.33;16.40;;;;;;;25.41;51.07;94744.75;6149897;28;103668;-58
2022/08/16 06:11:01;;;;;;;15.40;13.90;;;;;;;25.33;51.43;94740.22;6160611;28;103127;-58
2022/08/16 06:14:13;;;;;;;15.80;14.20;;;;;;;25.45;50.23;94744.84;6159033;28;103352;-59
2022/08/16 06:17:16;;;;;;;17.00;15.57;;;;;;;25.37;50.67;94730.44;6155262;28;103009;-59
2022/08/16 06:20:26;;;;;;;15.17;13.77;;;;;;;25.34;51.23;94739.91;6157788;28;105617;-59
2022/08/16 06:23:41;;;;;;;21.63;17.43;;;;;;;25.53;51.73;94739.38;6163606;28;104040;-59
2022/08/16 06:26:44;;;;;;;17.93;14.27;;;;;;;25.72;51.29;94738.84;6164006;28;104391;-57
2022/08/16 06:29:59;;;;;;;17.07;14.13;;;;;;;25.82;51.84;94726.84;6153865;28;103181;-58
2022/08/16 06:33:05;;;;;;;18.37;14.33;;;;;;;26.10;50.32;94738.47;6164052;28;103025;-57
2022/08/16 06:36:15;;;;;;;15.23;13.63;;;;;;;26.20;49.55;94732.63;6163486;28;103124;-60
2022/08/16 06:39:24;;;;;;;18.50;14.43;;;;;;;26.23;48.92;94726.59;6163781;28;103199;-60
2022/08/16 06:42:30;;;;;;;13.57;12.27;;;;;;;26.25;48.67;94724.34;6152624;28;105308;-59
2022/08/16 06:45:50;;;;;;;14.60;13.40;;;;;;;26.32;47.72;94728.34;6162530;28;102888;-59
2022/08/16 06:48:53;;;;;;;13.87;12.47;;;;;;;26.32;47.71;94729.13;6163136;28;103322;-58
2022/08/16 06:51:56;;;;;;;22.73;20.37;;;;;;;26.17;47.91;94733.28;6160617;28;104013;-57
2022/08/16 06:55:08;;;;;;;21.00;17.40;;;;;;;25.97;47.45;94720.81;6162202;28;103425;-57
2022/08/16 06:58:15;;;;;;;15.20;13.60;;;;;;;25.83;47.93;94729.19;6163159;28;103455;-58
2022/08/16 07:01:24;;;;;;;15.60;14.27;;;;;;;25.73;48.25;94718.16;6163072;28;103433;-59
2022/08/16 07:04:47;;;;;;;14.40;13.20;;;;;;;25.65;49.04;94715.25;6153029;28;103440;-59
2022/08/16 07:07:54;;;;;;;14.80;13.40;;;;;;;25.54;48.64;94706.13;6162752;28;103035;-60
2022/08/16 07:10:59;;;;;;;13.77;12.67;;;;;;;25.62;48.72;94707.13;6161978;28;103022;-58
2022/08/16 07:14:03;;;;;;;14.77;13.13;;;;;;;25.72;49.27;94714.72;6156423;28;104160;-59
2022/08/16 07:17:27;;;;;;;13.67;12.20;;;;;;;25.85;48.99;94708.19;6156114;28;105008;-60
2022/08/16 07:20:32;;;;;;;13.30;12.03;;;;;;;26.06;48.21;94699.25;6161153;28;104433;-61
2022/08/16 07:23:49;;;;;;;24.53;14.23;;;;;;;26.23;47.37;94699.00;6160877;28;104084;-59
2022/08/16 07:27:02;;;;;;;61.30;22.33;;;;;;;26.30;47.87;94695.72;6150716;28;104206;-58
2022/08/16 07:30:13;;;;;;;147.67;33.20;;;;;;;26.31;47.30;94689.22;6162344;28;104224;-59
2022/08/16 07:33:37;;;;;;;138.03;32.30;;;;;;;26.36;47.00;94689.75;6163101;28;102866;-59
2022/08/16 07:36:56;;;;;;;55.03;20.60;;;;;;;26.37;47.10;94693.22;6157885;28;103051;-58
2022/08/16 07:40:01;;;;;;;38.37;17.03;;;;;;;26.40;47.03;94695.25;6159327;28;103448;-59
2022/08/16 07:43:14;;;;;;;29.90;17.10;;;;;;;26.43;46.83;94691.88;6161545;28;104370;-59
2022/08/16 07:46:17;;;;;;;21.87;15.40;;;;;;;26.38;46.78;94695.59;6162083;28;103053;-59
2022/08/16 07:49:40;;;;;;;74.00;25.30;;;;;;;26.22;47.28;94698.22;6151422;28;105003;-59
2022/08/16 07:53:00;;;;;;;64.10;22.27;;;;;;;26.20;47.60;94695.06;6169414;28;103144;-59
2022/08/16 07:56:05;;;;;;;28.87;15.57;;;;;;;26.19;47.50;94698.88;6185709;28;103000;-60
2022/08/16 07:59:10;;;;;;;55.63;20.17;;;;;;;26.18;47.18;94696.53;6186217;28;103060;-59
2022/08/16 08:02:15;;;;;;;47.20;18.93;;;;;;;26.30;47.47;94701.06;6176323;28;103384;-58
2022/08/16 08:05:24;;;;;;;217.10;44.17;;;;;;;26.14;46.73;94707.16;6185634;28;103540;-60
2022/08/16 08:08:40;;;;;;;134.83;35.37;;;;;;;26.06;47.97;94705.41;6186543;28;103136;-57
2022/08/16 08:11:53;;;;;;;101.43;30.80;;;;;;;26.19;47.79;94704.22;6178305;28;105508;-58
2022/08/16 08:15:06;;;;;;;73.27;24.03;;;;;;;26.30;47.29;94709.13;6178578;28;103107;-58
2022/08/16 08:18:12;;;;;;;84.80;24.43;;;;;;;26.37;47.43;94704.72;6159483;28;104108;-57
2022/08/16 08:21:34;;;;;;;50.17;21.00;;;;;;;26.61;46.49;94703.84;6160359;28;103218;-58
2022/08/16 08:24:57;;;;;;;54.30;20.77;;;;;;;26.75;46.25;94703.50;6152516;28;103875;-58
2022/08/16 08:28:05;;;;;;;60.87;21.47;;;;;;;26.83;46.13;94703.31;6161830;28;103170;-59
2022/08/16 08:31:14;;;;;;;41.73;19.03;;;;;;;26.93;46.07;94712.00;6161934;28;103157;-59
2022/08/16 08:34:19;;;;;;;35.27;18.60;;;;;;;26.98;45.96;94707.16;6151773;28;103105;-58
2022/08/16 08:37:25;;;;;;;48.00;19.57;;;;;;;27.03;46.07;94706.88;6161014;28;102951;-60
2022/08/16 08:40:48;;;;;;;36.40;18.80;;;;;;;27.01;45.95;94711.81;6161934;28;102766;-59
2022/08/16 08:43:51;;;;;;;46.40;17.87;;;;;;;26.96;46.64;94708.63;6160957;28;102849;-59
2022/08/16 08:46:57;;;;;;;42.97;18.03;;;;;;;26.85;46.47;94717.19;6155185;28;104392;-59
2022/08/16 08:50:03;;;;;;;36.23;18.60;;;;;;;26.74;46.49;94712.66;6183991;28;104239;-57
2022/08/16 08:53:08;;;;;;;44.47;20.23;;;;;;;26.68;46.61;94711.34;6185709;28;104143;-58
2022/08/16 08:56:15;;;;;;;37.60;18.53;;;;;;;26.62;47.12;94708.09;6181643;28;105274;-58
2022/08/16 08:59:26;;;;;;;32.43;16.90;;;;;;;26.59;47.16;94706.09;6180486;28;103252;-58
2022/08/16 09:02:31;;;;;;;40.40;17.20;;;;;;;26.55;47.43;94706.03;6185815;28;103028;-60
2022/08/16 09:05:35;;;;;;;28.90;17.77;;;;;;;26.51;47.27;94698.97;6185044;28;103068;-59
2022/08/16 09:08:39;;;;;;;31.87;17.23;;;;;;;26.44;47.48;94690.75;6175655;28;104205;-55
2022/08/16 09:11:49;;;;;;;34.03;18.00;;;;;;;26.45;47.60;94694.97;6185123;28;104259;-63
2022/08/16 09:15:12;;;;;;;29.70;17.37;;;;;;;26.56;47.40;94690.69;6185863;28;103985;-57
2022/08/16 09:18:17;;;;;;;25.97;15.50;;;;;;;26.72;47.25;94693.44;6185210;28;103331;-58
2022/08/16 09:21:29;;;;;;;26.10;16.80;;;;;;;26.75;46.66;94701.59;6174171;28;103208;-59
2022/08/16 09:24:35;;;;;;;24.17;15.80;;;;;;;26.88;46.93;94696.91;6160711;28;102644;-58
2022/08/16 09:27:55;;;;;;;15.10;11.80;;;;;;;27.25;45.44;94699.38;6168276;28;103284;-57
2022/08/16 09:31:12;;;;;;;16.30;12.70;;;;;;;27.29;46.07;94698.34;6147392;28;104584;-58
2022/08/16 09:34:16;;;;;;;11.43;9.60;;;;;;;27.69;44.78;94691.97;6160398;28;103956;-58
2022/08/16 09:37:22;;;;;;;10.60;9.50;;;;;;;27.75;45.78;94696.75;6160636;28;103353;-58
2022/08/16 09:40:32;;;;;;;11.40;10.30;;;;;;;27.77;44.83;94694.47;6160270;28;104056;-58
2022/08/16 09:43:46;;;;;;;12.90;11.70;;;;;;;27.58;45.09;94690.97;6151183;28;103080;-58
2022/08/16 09:47:03;;;;;;;11.20;10.10;;;;;;;27.69;44.36;94671.25;6160607;28;103277;-58
2022/08/16 09:50:14;;;;;;;12.60;11.17;;;;;;;27.68;44.70;94693.88;6159664;28;102968;-57
2022/08/16 09:53:25;;;;;;;11.70;10.57;;;;;;;27.58;44.60;94678.31;6167208;28;104137;-58
2022/08/16 09:56:32;;;;;;;12.83;11.77;;;;;;;27.49;44.20;94682.28;6182782;28;103072;-58
2022/08/16 09:59:35;;;;;;;12.63;11.27;;;;;;;27.43;44.61;94671.03;6189241;28;103328;-58
2022/08/16 10:02:43;;;;;;;10.93;9.83;;;;;;;27.45;43.76;94674.16;6189208;28;103046;-59
2022/08/16 10:05:51;;;;;;;12.57;11.27;;;;;;;27.47;43.74;94679.97;6179382;28;103973;-57
2022/08/16 10:08:54;;;;;;;11.83;10.73;;;;;;;27.41;42.97;94682.16;6185595;28;104190;-57
2022/08/16 10:15:30;;;;;;;11.50;10.60;;;;;;;27.34;42.99;94684.66;6163112;28;103054;-57
2022/08/16 10:18:34;;;;;;;12.20;11.03;;;;;;;27.37;42.08;94675.88;6153655;28;103074;-57
2022/08/16 10:21:59;;;;;;;11.87;10.87;;;;;;;27.34;42.22;94679.28;6164173;28;105138;-56
2022/08/16 10:25:08;;;;;;;11.13;10.23;;;;;;;27.32;41.69;94678.06;6163206;28;102866;-56
2022/08/16 10:28:12;;;;;;;10.73;9.50;;;;;;;27.24;41.08;94669.03;6153139;28;103366;-57
2022/08/16 10:31:32;;;;;;;13.73;12.53;;;;;;;27.10;41.93;94666.00;6163561;28;103045;-57
2022/08/16 10:34:48;;;;;;;13.50;12.33;;;;;;;26.99;42.60;94671.09;6163882;28;104118;-56
2022/08/16 10:37:55;;;;;;;12.97;11.87;;;;;;;26.90;42.46;94675.09;6164170;28;103042;-56
2022/08/16 10:40:59;;;;;;;12.30;11.37;;;;;;;26.83;42.56;94671.09;6153370;28;103429;-57
2022/08/16 10:44:03;;;;;;;12.50;11.40;;;;;;;26.76;42.92;94678.97;6163165;28;103263;-55
2022/08/16 10:47:11;;;;;;;11.53;10.57;;;;;;;26.76;43.14;94662.09;6173800;28;103480;-59
2022/08/16 10:50:15;;;;;;;10.40;9.60;;;;;;;26.78;42.83;94667.91;6174180;28;103699;-60
2022/08/16 10:53:23;;;;;;;9.97;9.20;;;;;;;26.93;42.28;94661.75;6180650;28;103122;-59
2022/08/16 10:56:34;;;;;;;9.70;8.87;;;;;;;27.05;42.14;94668.94;6185037;28;103110;-59
2022/08/16 10:59:57;;;;;;;10.07;9.30;;;;;;;27.15;41.17;94669.19;6180088;28;102955;-62
2022/08/16 11:03:03;;;;;;;9.33;8.63;;;;;;;27.22;41.34;94674.00;6178099;28;103404;-60
2022/08/16 11:06:08;;;;;;;10.20;9.20;;;;;;;27.27;41.32;94697.16;6186812;28;105397;-59
2022/08/16 11:09:15;;;;;;;9.33;8.53;;;;;;;27.30;41.00;94678.41;6186188;28;104413;-56
2022/08/16 11:12:30;;;;;;;10.00;9.20;;;;;;;27.38;41.58;94673.97;6183004;28;103162;-57
2022/08/16 11:15:34;;;;;;;10.40;9.60;;;;;;;27.45;41.60;94672.25;6180115;28;103221;-57
2022/08/16 11:18:38;;;;;;;11.37;10.20;;;;;;;27.49;41.73;94666.16;6186185;28;103463;-57
2022/08/16 11:22:01;;;;;;;10.33;9.17;;;;;;;27.44;41.24;94659.16;6187122;28;102923;-57
2022/08/16 11:25:27;;;;;;;10.20;9.20;;;;;;;27.38;41.46;94664.00;6173245;28;102796;-56
2022/08/16 11:28:52;;;;;;;11.40;8.40;;;;;;;27.25;41.49;94653.69;6187656;28;102991;-56
2022/08/16 11:32:16;;;;;;;9.77;8.77;;;;;;;27.07;42.14;94655.97;6185859;28;102732;-57
2022/08/16 11:35:26;;;;;;;9.57;8.70;;;;;;;27.02;42.21;94656.19;6182058;28;103210;-58
2022/08/16 11:38:49;;;;;;;10.90;9.23;;;;;;;26.92;41.57;94656.75;6180656;28;103199;-52
2022/08/16 11:42:01;;;;;;;8.17;7.37;;;;;;;27.03;42.32;94649.69;6180118;28;103303;-53
2022/08/16 11:45:25;;;;;;;9.60;8.83;;;;;;;27.10;43.07;94644.53;6196551;28;104388;-53
2022/08/16 11:48:32;;;;;;;9.30;8.60;;;;;;;27.07;43.06;94629.09;6174279;28;103231;-53
2022/08/16 11:51:35;;;;;;;10.97;9.90;;;;;;;27.14;42.22;94635.41;6184421;28;103538;-52
2022/08/16 11:54:39;;;;;;;11.30;8.33;;;;;;;27.22;42.63;94641.75;6184902;28;103457;-56
2022/08/16 11:57:43;;;;;;;9.87;8.97;;;;;;;27.25;41.88;94646.41;6182944;28;103063;-57
2022/08/16 12:00:48;;;;;;;18.50;8.87;;;;;;;27.29;42.48;94652.69;6174056;28;105200;-56
2022/08/16 12:03:55;;;;;;;9.90;9.10;;;;;;;27.34;41.66;94676.59;6183917;28;103136;-56
2022/08/16 12:06:58;;;;;;;10.93;7.50;;;;;;;27.38;41.62;94669.38;6183283;28;104008;-56
2022/08/16 12:10:04;;;;;;;7.13;6.40;;;;;;;27.41;41.10;94674.09;6173253;28;103094;-57
2022/08/16 12:13:10;;;;;;;6.37;5.87;;;;;;;27.38;40.37;94661.31;6183590;28;103283;-57
2022/08/16 12:16:13;;;;;;;6.67;6.03;;;;;;;27.39;40.27;94657.53;6182094;28;103215;-56
2022/08/16 12:19:23;;;;;;;6.43;5.67;;;;;;;27.41;40.52;94662.56;6182161;28;104302;-56
2022/08/16 12:22:38;;;;;;;6.53;5.90;;;;;;;27.42;41.45;94653.38;6175622;28;104038;-57
2022/08/16 12:25:43;;;;;;;7.33;5.50;;;;;;;27.41;41.40;94644.53;6183496;28;103043;-57
2022/08/16 12:28:49;;;;;;;6.33;5.73;;;;;;;27.44;41.03;94638.44;6183646;28;104052;-56
2022/08/16 12:31:58;;;;;;;6.33;5.80;;;;;;;27.38;41.18;94629.06;6177138;28;103839;-56
2022/08/16 12:35:23;;;;;;;8.00;6.97;;;;;;;27.26;41.54;94623.03;6178103;28;105390;-57
2022/08/16 12:38:28;;;;;;;8.57;6.13;;;;;;;27.16;42.48;94616.25;6193012;28;104356;-58
2022/08/16 12:41:47;;;;;;;7.60;6.90;;;;;;;27.12;42.88;94615.41;6181811;28;104056;-58
2022/08/16 12:44:53;;;;;;;7.27;6.67;;;;;;;27.07;42.12;94615.66;6173171;28;103011;-59
2022/08/16 12:51:38;;;;;;;6.43;5.93;;;;;;;27.04;42.52;94619.03;6177768;28;103767;-58
2022/08/16 12:55:02;;;;;;;9.37;7.00;;;;;;;27.11;41.68;94609.25;6179896;28;104111;-57
2022/08/16 12:58:06;;;;;;;11.03;6.77;;;;;;;27.23;40.86;94605.69;6178719;28;103234;-57
2022/08/16 13:01:33;;;;;;;9.33;6.87;;;;;;;27.30;40.68;94597.03;6176323;28;103202;-58
2022/08/16 13:04:36;;;;;;;8.80;6.80;;;;;;;27.36;41.19;94604.47;6184079;28;103192;-57
2022/08/16 13:07:42;;;;;;;7.07;6.57;;;;;;;27.51;40.26;94599.41;6171138;28;103017;-58
2022/08/16 13:10:54;;;;;;;6.90;6.23;;;;;;;27.56;40.45;94589.16;6180169;28;104022;-57
2022/08/16 13:13:57;;;;;;;7.53;6.40;;;;;;;27.59;39.92;94591.16;6184063;28;104249;-57
2022/08/16 13:17:04;;;;;;;6.53;5.93;;;;;;;27.62;40.26;94590.44;6181710;28;103055;-57
2022/08/16 13:20:12;;;;;;;7.63;6.93;;;;;;;27.65;40.22;94591.63;6168952;28;104020;-58
2022/08/16 13:23:15;;;;;;;7.13;6.50;;;;;;;27.70;39.71;94583.28;6180886;28;102946;-57
2022/08/16 13:26:19;;;;;;;7.73;6.20;;;;;;;27.72;39.61;94584.50;6182509;28;103238;-56
2022/08/16 13:29:22;;;;;;;7.20;6.50;;;;;;;27.67;40.59;94586.69;6171007;28;103335;-56
2022/08/16 13:32:26;;;;;;;7.00;6.40;;;;;;;27.60;39.99;94578.47;6179022;28;102821;-57
2022/08/16 13:35:44;;;;;;;7.47;6.77;;;;;;;27.54;40.52;94566.44;6182393;28;103062;-58
2022/08/16 13:38:58;;;;;;;9.93;6.93;;;;;;;27.49;40.96;94561.34;6182183;28;104093;-58
2022/08/16 13:42:02;;;;;;;7.63;6.93;;;;;;;27.45;40.93;94559.38;6165987;28;103694;-58
2022/08/16 13:45:07;;;;;;;6.90;6.33;;;;;;;27.43;40.19;94560.84;6179030;28;106369;-57
2022/08/16 13:48:12;;;;;;;6.20;5.43;;;;;;;27.37;40.05;94556.88;6178206;28;103205;-58
2022/08/16 13:51:28;;;;;;;7.43;5.43;;;;;;;27.49;40.71;94554.06;6172993;28;104641;-57
2022/08/16 13:54:32;;;;;;;8.10;6.33;;;;;;;27.63;40.01;94556.28;6171866;28;104052;-58
2022/08/16 13:57:35;;;;;;;6.37;5.77;;;;;;;27.74;40.61;94557.28;6179921;28;103357;-60
2022/08/16 14:01:00;;;;;;;6.10;5.50;;;;;;;27.73;40.55;94556.50;6173831;28;106156;-58
2022/08/16 14:04:05;;;;;;;8.17;5.93;;;;;;;27.81;40.02;94565.47;6170643;28;104400;-58
2022/08/16 14:07:12;;;;;;;9.07;6.03;;;;;;;27.87;39.22;94569.44;6181207;28;104053;-58
2022/08/16 14:10:26;;;;;;;6.20;5.67;;;;;;;27.89;39.05;94561.84;6180377;28;103494;-57
2022/08/16 14:13:29;;;;;;;6.33;5.73;;;;;;;27.90;38.93;94552.63;6179100;28;103239;-57
2022/08/16 14:16:35;;;;;;;6.40;5.80;;;;;;;27.93;38.35;94561.91;6170897;28;104341;-57
2022/08/16 14:19:40;;;;;;;7.77;5.43;;;;;;;27.90;38.19;94549.16;6181756;28;103285;-59
2022/08/16 14:22:47;;;;;;;7.33;5.20;;;;;;;27.81;37.99;94560.09;6173739;28;104046;-59
2022/08/16 14:25:56;;;;;;;6.13;4.57;;;;;;;27.73;37.74;94553.03;6177128;28;104107;-57
2022/08/16 14:28:59;;;;;;;5.80;4.50;;;;;;;27.63;36.20;94562.41;6168223;28;103879;-57
2022/08/16 14:32:07;;;;;;;4.93;4.53;;;;;;;27.53;35.75;94556.81;6178121;28;104717;-59